sensor_id;sensor_type;location;lat;lon;timestamp;P1;durP1;ratioP1;P2;durP2;ratioP2
25962;SDS011;13760;52.588;13.406;2023-04-24T00:00:06;8.77;;;6.40;;
25962;SDS011;13760;52.588;13.406;2023-04-24T00:02:34;9.30;;;7.20;;
25962;SDS011;13760;52.588;13.406;2023-04-24T00:04:59;7.53;;;6.65;;
25962;SDS011;13760;52.588;13.406;2023-04-24T00:07:28;8.32;;;6.82;;
25962;SDS011;13760;52.588;13.406;2023-04-24T00:09:54;8.13;;;7.15;;
25962;SDS011;13760;52.588;13.406;2023-04-24T00:12:20;8.95;;;7.13;;
25962;SDS011;13760;52.588;13.406;2023-04-24T00:14:46;8.60;;;7.07;;
25962;SDS011;13760;52.588;13.406;2023-04-24T00:17:11;10.82;;;6.97;;
25962;SDS011;13760;52.588;13.406;2023-04-24T00:19:37;11.50;;;7.13;;
25962;SDS011;13760;52.588;13.406;2023-04-24T00:22:02;8.43;;;7.03;;
25962;SDS011;13760;52.588;13.406;2023-04-24T00:24:28;11.82;;;7.20;;
25962;SDS011;13760;52.588;13.406;2023-04-24T00:26:54;8.05;;;6.95;;
25962;SDS011;13760;52.588;13.406;2023-04-24T00:29:19;8.73;;;6.63;;
25962;SDS011;13760;52.588;13.406;2023-04-24T00:31:45;8.65;;;7.15;;
25962;SDS011;13760;52.588;13.406;2023-04-24T00:34:11;9.15;;;6.80;;
25962;SDS011;13760;52.588;13.406;2023-04-24T00:36:37;8.95;;;7.13;;
25962;SDS011;13760;52.588;13.406;2023-04-24T00:39:03;7.75;;;6.78;;
25962;SDS011;13760;52.588;13.406;2023-04-24T00:41:28;8.10;;;6.60;;
25962;SDS011;13760;52.588;13.406;2023-04-24T00:43:55;9.90;;;7.22;;
25962;SDS011;13760;52.588;13.406;2023-04-24T00:46:20;8.18;;;6.82;;
25962;SDS011;13760;52.588;13.406;2023-04-24T00:48:46;10.77;;;8.02;;
25962;SDS011;13760;52.588;13.406;2023-04-24T00:51:12;6.90;;;6.25;;
25962;SDS011;13760;52.588;13.406;2023-04-24T00:53:37;9.02;;;7.50;;
25962;SDS011;13760;52.588;13.406;2023-04-24T00:56:03;10.65;;;7.70;;
25962;SDS011;13760;52.588;13.406;2023-04-24T00:58:30;11.32;;;7.82;;
25962;SDS011;13760;52.588;13.406;2023-04-24T01:00:56;10.05;;;8.00;;
25962;SDS011;13760;52.588;13.406;2023-04-24T01:03:24;9.48;;;7.78;;
25962;SDS011;13760;52.588;13.406;2023-04-24T01:05:54;8.27;;;7.15;;
25962;SDS011;13760;52.588;13.406;2023-04-24T01:08:20;8.52;;;7.47;;
25962;SDS011;13760;52.588;13.406;2023-04-24T01:10:49;8.60;;;7.40;;
25962;SDS011;13760;52.588;13.406;2023-04-24T01:13:16;9.50;;;6.97;;
25962;SDS011;13760;52.588;13.406;2023-04-24T01:15:43;7.40;;;6.70;;
25962;SDS011;13760;52.588;13.406;2023-04-24T01:18:08;8.45;;;7.30;;
25962;SDS011;13760;52.588;13.406;2023-04-24T01:20:34;9.65;;;7.32;;
25962;SDS011;13760;52.588;13.406;2023-04-24T01:23:04;10.80;;;7.78;;
25962;SDS011;13760;52.588;13.406;2023-04-24T01:25:30;8.90;;;7.63;;
25962;SDS011;13760;52.588;13.406;2023-04-24T01:27:56;11.73;;;8.35;;
25962;SDS011;13760;52.588;13.406;2023-04-24T01:30:22;9.35;;;8.15;;
25962;SDS011;13760;52.588;13.406;2023-04-24T01:32:49;9.73;;;8.00;;
25962;SDS011;13760;52.588;13.406;2023-04-24T01:35:19;10.00;;;8.07;;
25962;SDS011;13760;52.588;13.406;2023-04-24T01:37:45;8.90;;;7.80;;
25962;SDS011;13760;52.588;13.406;2023-04-24T01:40:10;9.25;;;8.05;;
25962;SDS011;13760;52.588;13.406;2023-04-24T01:42:36;10.00;;;7.68;;
25962;SDS011;13760;52.588;13.406;2023-04-24T01:45:02;10.52;;;6.93;;
25962;SDS011;13760;52.588;13.406;2023-04-24T01:47:30;8.18;;;7.32;;
25962;SDS011;13760;52.588;13.406;2023-04-24T01:49:56;8.73;;;7.15;;
25962;SDS011;13760;52.588;13.406;2023-04-24T01:52:21;8.10;;;6.40;;
25962;SDS011;13760;52.588;13.406;2023-04-24T01:54:48;8.02;;;6.95;;
25962;SDS011;13760;52.588;13.406;2023-04-24T01:57:14;9.82;;;6.80;;
25962;SDS011;13760;52.588;13.406;2023-04-24T01:59:39;8.57;;;6.43;;
25962;SDS011;13760;52.588;13.406;2023-04-24T02:02:05;7.45;;;6.65;;
25962;SDS011;13760;52.588;13.406;2023-04-24T02:04:31;9.38;;;6.97;;
25962;SDS011;13760;52.588;13.406;2023-04-24T02:06:58;7.85;;;6.93;;
25962;SDS011;13760;52.588;13.406;2023-04-24T02:09:23;7.80;;;6.43;;
25962;SDS011;13760;52.588;13.406;2023-04-24T02:11:49;7.57;;;6.47;;
25962;SDS011;13760;52.588;13.406;2023-04-24T02:14:15;8.15;;;7.05;;
25962;SDS011;13760;52.588;13.406;2023-04-24T02:16:41;7.90;;;6.35;;
25962;SDS011;13760;52.588;13.406;2023-04-24T02:19:06;8.40;;;7.07;;
25962;SDS011;13760;52.588;13.406;2023-04-24T02:21:32;7.57;;;6.53;;
25962;SDS011;13760;52.588;13.406;2023-04-24T02:23:57;7.53;;;6.50;;
25962;SDS011;13760;52.588;13.406;2023-04-24T02:26:23;8.73;;;7.03;;
25962;SDS011;13760;52.588;13.406;2023-04-24T02:28:49;7.45;;;6.38;;
25962;SDS011;13760;52.588;13.406;2023-04-24T02:31:14;7.47;;;6.63;;
25962;SDS011;13760;52.588;13.406;2023-04-24T02:33:40;8.55;;;7.28;;
25962;SDS011;13760;52.588;13.406;2023-04-24T02:36:05;8.43;;;6.70;;
25962;SDS011;13760;52.588;13.406;2023-04-24T02:38:31;9.13;;;7.47;;
25962;SDS011;13760;52.588;13.406;2023-04-24T02:40:57;8.32;;;6.90;;
25962;SDS011;13760;52.588;13.406;2023-04-24T02:43:22;7.63;;;6.82;;
25962;SDS011;13760;52.588;13.406;2023-04-24T02:45:48;8.20;;;7.10;;
25962;SDS011;13760;52.588;13.406;2023-04-24T02:48:13;7.75;;;7.00;;
25962;SDS011;13760;52.588;13.406;2023-04-24T02:50:39;8.27;;;6.90;;
25962;SDS011;13760;52.588;13.406;2023-04-24T02:53:05;8.15;;;7.07;;
25962;SDS011;13760;52.588;13.406;2023-04-24T02:55:31;9.23;;;7.10;;
25962;SDS011;13760;52.588;13.406;2023-04-24T02:57:56;7.55;;;6.80;;
25962;SDS011;13760;52.588;13.406;2023-04-24T03:00:22;8.75;;;7.22;;
25962;SDS011;13760;52.588;13.406;2023-04-24T03:02:47;9.80;;;8.10;;
25962;SDS011;13760;52.588;13.406;2023-04-24T03:05:14;8.55;;;7.72;;
25962;SDS011;13760;52.588;13.406;2023-04-24T03:07:40;8.80;;;7.90;;
25962;SDS011;13760;52.588;13.406;2023-04-24T03:10:06;9.45;;;8.10;;
25962;SDS011;13760;52.588;13.406;2023-04-24T03:12:32;8.85;;;7.72;;
25962;SDS011;13760;52.588;13.406;2023-04-24T03:14:58;10.63;;;8.15;;
25962;SDS011;13760;52.588;13.406;2023-04-24T03:17:23;8.32;;;7.47;;
25962;SDS011;13760;52.588;13.406;2023-04-24T03:19:49;9.13;;;8.02;;
25962;SDS011;13760;52.588;13.406;2023-04-24T03:22:15;9.77;;;8.35;;
25962;SDS011;13760;52.588;13.406;2023-04-24T03:24:40;10.20;;;8.57;;
25962;SDS011;13760;52.588;13.406;2023-04-24T03:27:06;9.63;;;7.78;;
25962;SDS011;13760;52.588;13.406;2023-04-24T03:29:31;9.15;;;7.78;;
25962;SDS011;13760;52.588;13.406;2023-04-24T03:31:57;9.02;;;8.10;;
25962;SDS011;13760;52.588;13.406;2023-04-24T03:34:22;9.93;;;7.80;;
25962;SDS011;13760;52.588;13.406;2023-04-24T03:36:48;10.70;;;8.10;;
25962;SDS011;13760;52.588;13.406;2023-04-24T03:39:14;8.77;;;7.88;;
25962;SDS011;13760;52.588;13.406;2023-04-24T03:41:39;10.43;;;7.60;;
25962;SDS011;13760;52.588;13.406;2023-04-24T03:44:05;7.85;;;7.05;;
25962;SDS011;13760;52.588;13.406;2023-04-24T03:46:30;8.90;;;7.30;;
25962;SDS011;13760;52.588;13.406;2023-04-24T03:48:56;8.90;;;7.78;;
25962;SDS011;13760;52.588;13.406;2023-04-24T03:51:21;8.65;;;7.78;;
25962;SDS011;13760;52.588;13.406;2023-04-24T03:53:48;8.82;;;8.00;;
25962;SDS011;13760;52.588;13.406;2023-04-24T03:56:14;10.15;;;7.55;;
25962;SDS011;13760;52.588;13.406;2023-04-24T03:58:40;10.15;;;8.20;;
25962;SDS011;13760;52.588;13.406;2023-04-24T04:01:05;8.88;;;7.97;;
25962;SDS011;13760;52.588;13.406;2023-04-24T04:03:31;9.07;;;8.15;;
25962;SDS011;13760;52.588;13.406;2023-04-24T04:05:57;8.38;;;7.47;;
25962;SDS011;13760;52.588;13.406;2023-04-24T04:08:22;8.82;;;7.70;;
25962;SDS011;13760;52.588;13.406;2023-04-24T04:10:51;9.65;;;7.75;;
25962;SDS011;13760;52.588;13.406;2023-04-24T04:13:16;9.05;;;8.15;;
25962;SDS011;13760;52.588;13.406;2023-04-24T04:15:42;8.13;;;7.32;;
25962;SDS011;13760;52.588;13.406;2023-04-24T04:18:07;9.45;;;7.90;;
25962;SDS011;13760;52.588;13.406;2023-04-24T04:20:33;10.95;;;8.00;;
25962;SDS011;13760;52.588;13.406;2023-04-24T04:22:59;8.60;;;7.70;;
25962;SDS011;13760;52.588;13.406;2023-04-24T04:25:25;8.02;;;6.78;;
25962;SDS011;13760;52.588;13.406;2023-04-24T04:27:51;7.97;;;7.18;;
25962;SDS011;13760;52.588;13.406;2023-04-24T04:30:20;7.72;;;6.82;;
25962;SDS011;13760;52.588;13.406;2023-04-24T04:32:46;8.02;;;7.22;;
25962;SDS011;13760;52.588;13.406;2023-04-24T04:35:12;9.27;;;7.15;;
25962;SDS011;13760;52.588;13.406;2023-04-24T04:37:38;8.13;;;7.10;;
25962;SDS011;13760;52.588;13.406;2023-04-24T04:40:05;9.15;;;7.38;;
25962;SDS011;13760;52.588;13.406;2023-04-24T04:42:34;10.15;;;7.10;;
25962;SDS011;13760;52.588;13.406;2023-04-24T04:45:00;10.30;;;6.75;;
25962;SDS011;13760;52.588;13.406;2023-04-24T04:47:27;8.55;;;6.88;;
25962;SDS011;13760;52.588;13.406;2023-04-24T04:49:56;6.93;;;6.10;;
25962;SDS011;13760;52.588;13.406;2023-04-24T04:52:24;7.38;;;6.50;;
25962;SDS011;13760;52.588;13.406;2023-04-24T04:54:53;11.57;;;6.68;;
25962;SDS011;13760;52.588;13.406;2023-04-24T04:57:19;8.23;;;6.45;;
25962;SDS011;13760;52.588;13.406;2023-04-24T04:59:45;7.85;;;5.90;;
25962;SDS011;13760;52.588;13.406;2023-04-24T05:02:11;8.80;;;6.20;;
25962;SDS011;13760;52.588;13.406;2023-04-24T05:04:37;10.48;;;5.60;;
25962;SDS011;13760;52.588;13.406;2023-04-24T05:07:03;6.78;;;5.40;;
25962;SDS011;13760;52.588;13.406;2023-04-24T05:09:28;7.57;;;5.53;;
25962;SDS011;13760;52.588;13.406;2023-04-24T05:11:54;6.95;;;5.38;;
25962;SDS011;13760;52.588;13.406;2023-04-24T05:14:21;8.00;;;5.70;;
25962;SDS011;13760;52.588;13.406;2023-04-24T05:16:47;5.82;;;4.88;;
25962;SDS011;13760;52.588;13.406;2023-04-24T05:19:18;7.80;;;5.72;;
25962;SDS011;13760;52.588;13.406;2023-04-24T05:21:43;7.40;;;5.55;;
25962;SDS011;13760;52.588;13.406;2023-04-24T05:24:12;5.68;;;4.95;;
25962;SDS011;13760;52.588;13.406;2023-04-24T05:26:37;5.68;;;5.07;;
25962;SDS011;13760;52.588;13.406;2023-04-24T05:29:03;5.03;;;4.53;;
25962;SDS011;13760;52.588;13.406;2023-04-24T05:31:29;4.93;;;4.38;;
25962;SDS011;13760;52.588;13.406;2023-04-24T05:33:54;5.20;;;4.70;;
25962;SDS011;13760;52.588;13.406;2023-04-24T05:36:20;6.20;;;4.68;;
25962;SDS011;13760;52.588;13.406;2023-04-24T05:38:45;6.28;;;4.65;;
25962;SDS011;13760;52.588;13.406;2023-04-24T05:41:11;6.60;;;4.47;;
25962;SDS011;13760;52.588;13.406;2023-04-24T05:43:37;4.75;;;4.20;;
25962;SDS011;13760;52.588;13.406;2023-04-24T05:46:02;8.25;;;4.47;;
25962;SDS011;13760;52.588;13.406;2023-04-24T05:48:28;4.57;;;4.10;;
25962;SDS011;13760;52.588;13.406;2023-04-24T05:50:53;5.75;;;4.00;;
25962;SDS011;13760;52.588;13.406;2023-04-24T05:53:19;5.47;;;4.00;;
25962;SDS011;13760;52.588;13.406;2023-04-24T05:55:44;4.03;;;3.63;;
25962;SDS011;13760;52.588;13.406;2023-04-24T05:58:11;4.57;;;3.50;;
25962;SDS011;13760;52.588;13.406;2023-04-24T06:00:40;6.55;;;3.63;;
25962;SDS011;13760;52.588;13.406;2023-04-24T06:03:07;4.20;;;3.60;;
25962;SDS011;13760;52.588;13.406;2023-04-24T06:05:33;3.80;;;3.40;;
25962;SDS011;13760;52.588;13.406;2023-04-24T06:07:59;4.55;;;3.40;;
25962;SDS011;13760;52.588;13.406;2023-04-24T06:10:28;5.53;;;3.50;;
25962;SDS011;13760;52.588;13.406;2023-04-24T06:12:53;3.53;;;3.22;;
25962;SDS011;13760;52.588;13.406;2023-04-24T06:15:21;5.80;;;3.42;;
25962;SDS011;13760;52.588;13.406;2023-04-24T06:17:47;4.03;;;3.28;;
25962;SDS011;13760;52.588;13.406;2023-04-24T06:20:34;5.50;;;2.85;;
25962;SDS011;13760;52.588;13.406;2023-04-24T06:23:02;3.40;;;2.88;;
25962;SDS011;13760;52.588;13.406;2023-04-24T06:25:37;4.30;;;3.15;;
25962;SDS011;13760;52.588;13.406;2023-04-24T06:28:03;5.90;;;3.30;;
25962;SDS011;13760;52.588;13.406;2023-04-24T06:30:29;5.53;;;3.60;;
25962;SDS011;13760;52.588;13.406;2023-04-24T06:32:56;3.10;;;2.63;;
25962;SDS011;13760;52.588;13.406;2023-04-24T06:38:13;3.60;;;2.47;;
25962;SDS011;13760;52.588;13.406;2023-04-24T06:40:44;5.03;;;2.35;;
25962;SDS011;13760;52.588;13.406;2023-04-24T06:43:16;4.03;;;2.58;;
25962;SDS011;13760;52.588;13.406;2023-04-24T06:49:17;3.08;;;2.45;;
25962;SDS011;13760;52.588;13.406;2023-04-24T06:55:06;2.80;;;2.10;;
25962;SDS011;13760;52.588;13.406;2023-04-24T06:57:35;2.35;;;2.13;;
25962;SDS011;13760;52.588;13.406;2023-04-24T07:01:05;2.30;;;1.88;;
25962;SDS011;13760;52.588;13.406;2023-04-24T07:07:21;2.70;;;1.50;;
25962;SDS011;13760;52.588;13.406;2023-04-24T07:12:58;2.85;;;1.60;;
25962;SDS011;13760;52.588;13.406;2023-04-24T07:15:55;2.38;;;1.33;;
25962;SDS011;13760;52.588;13.406;2023-04-24T07:24:48;1.48;;;1.05;;
25962;SDS011;13760;52.588;13.406;2023-04-24T07:27:16;3.25;;;1.10;;
25962;SDS011;13760;52.588;13.406;2023-04-24T07:29:45;1.70;;;0.80;;
25962;SDS011;13760;52.588;13.406;2023-04-24T07:32:20;2.88;;;0.93;;
25962;SDS011;13760;52.588;13.406;2023-04-24T07:34:48;2.92;;;1.00;;
25962;SDS011;13760;52.588;13.406;2023-04-24T07:37:22;2.40;;;0.90;;
25962;SDS011;13760;52.588;13.406;2023-04-24T07:42:33;1.70;;;0.75;;
25962;SDS011;13760;52.588;13.406;2023-04-24T07:44:59;2.60;;;0.93;;
25962;SDS011;13760;52.588;13.406;2023-04-24T07:47:37;2.47;;;0.70;;
25962;SDS011;13760;52.588;13.406;2023-04-24T07:50:04;0.73;;;0.60;;
25962;SDS011;13760;52.588;13.406;2023-04-24T07:52:31;2.13;;;0.68;;
25962;SDS011;13760;52.588;13.406;2023-04-24T07:55:18;1.67;;;0.77;;
25962;SDS011;13760;52.588;13.406;2023-04-24T07:57:43;2.22;;;0.60;;
25962;SDS011;13760;52.588;13.406;2023-04-24T08:00:12;2.40;;;0.60;;
25962;SDS011;13760;52.588;13.406;2023-04-24T08:02:41;2.17;;;0.80;;
25962;SDS011;13760;52.588;13.406;2023-04-24T08:05:12;1.63;;;0.75;;
25962;SDS011;13760;52.588;13.406;2023-04-24T08:07:45;1.02;;;0.63;;
25962;SDS011;13760;52.588;13.406;2023-04-24T08:13:02;4.82;;;0.95;;
25962;SDS011;13760;52.588;13.406;2023-04-24T08:15:36;3.22;;;0.70;;
25962;SDS011;13760;52.588;13.406;2023-04-24T08:18:02;1.55;;;0.60;;
25962;SDS011;13760;52.588;13.406;2023-04-24T08:20:28;1.85;;;1.00;;
25962;SDS011;13760;52.588;13.406;2023-04-24T08:22:54;1.90;;;0.70;;
25962;SDS011;13760;52.588;13.406;2023-04-24T08:25:28;2.67;;;0.70;;
25962;SDS011;13760;52.588;13.406;2023-04-24T08:27:54;2.25;;;0.70;;
25962;SDS011;13760;52.588;13.406;2023-04-24T08:30:20;1.58;;;0.85;;
25962;SDS011;13760;52.588;13.406;2023-04-24T08:32:46;1.35;;;0.85;;
25962;SDS011;13760;52.588;13.406;2023-04-24T08:35:17;0.93;;;0.77;;
25962;SDS011;13760;52.588;13.406;2023-04-24T08:37:43;1.75;;;0.77;;
25962;SDS011;13760;52.588;13.406;2023-04-24T08:40:13;1.02;;;0.70;;
25962;SDS011;13760;52.588;13.406;2023-04-24T08:42:41;1.60;;;0.80;;
25962;SDS011;13760;52.588;13.406;2023-04-24T08:45:11;1.35;;;0.60;;
25962;SDS011;13760;52.588;13.406;2023-04-24T08:47:40;2.67;;;0.80;;
25962;SDS011;13760;52.588;13.406;2023-04-24T08:50:09;1.45;;;0.80;;
25962;SDS011;13760;52.588;13.406;2023-04-24T08:52:46;2.05;;;0.70;;
25962;SDS011;13760;52.588;13.406;2023-04-24T08:55:19;1.88;;;0.70;;
25962;SDS011;13760;52.588;13.406;2023-04-24T08:57:52;1.38;;;0.80;;
25962;SDS011;13760;52.588;13.406;2023-04-24T09:01:03;1.17;;;0.70;;
25962;SDS011;13760;52.588;13.406;2023-04-24T09:04:51;1.13;;;0.60;;
25962;SDS011;13760;52.588;13.406;2023-04-24T09:07:19;3.13;;;0.60;;
25962;SDS011;13760;52.588;13.406;2023-04-24T09:09:52;1.17;;;0.60;;
25962;SDS011;13760;52.588;13.406;2023-04-24T09:12:19;6.80;;;1.00;;
25962;SDS011;13760;52.588;13.406;2023-04-24T09:17:19;1.40;;;0.70;;
25962;SDS011;13760;52.588;13.406;2023-04-24T09:22:35;3.00;;;0.80;;
25962;SDS011;13760;52.588;13.406;2023-04-24T09:25:05;2.55;;;0.70;;
25962;SDS011;13760;52.588;13.406;2023-04-24T09:27:32;17.65;;;1.42;;
25962;SDS011;13760;52.588;13.406;2023-04-24T09:29:59;2.50;;;0.52;;
25962;SDS011;13760;52.588;13.406;2023-04-24T09:32:25;0.80;;;0.60;;
25962;SDS011;13760;52.588;13.406;2023-04-24T09:35:13;1.45;;;0.60;;
25962;SDS011;13760;52.588;13.406;2023-04-24T09:37:46;0.57;;;0.50;;
25962;SDS011;13760;52.588;13.406;2023-04-24T09:40:18;1.27;;;0.63;;
25962;SDS011;13760;52.588;13.406;2023-04-24T09:45:16;1.20;;;0.63;;
25962;SDS011;13760;52.588;13.406;2023-04-24T09:47:42;1.10;;;0.57;;
25962;SDS011;13760;52.588;13.406;2023-04-24T09:50:15;2.63;;;0.70;;
25962;SDS011;13760;52.588;13.406;2023-04-24T09:52:42;4.00;;;0.93;;
25962;SDS011;13760;52.588;13.406;2023-04-24T09:55:13;0.88;;;0.50;;
25962;SDS011;13760;52.588;13.406;2023-04-24T09:57:47;3.38;;;0.73;;
25962;SDS011;13760;52.588;13.406;2023-04-24T10:00:17;1.63;;;0.70;;
25962;SDS011;13760;52.588;13.406;2023-04-24T10:02:56;2.70;;;0.85;;
25962;SDS011;13760;52.588;13.406;2023-04-24T10:05:28;2.25;;;1.00;;
25962;SDS011;13760;52.588;13.406;2023-04-24T10:07:58;3.50;;;1.20;;
25962;SDS011;13760;52.588;13.406;2023-04-24T10:10:35;3.27;;;0.90;;
25962;SDS011;13760;52.588;13.406;2023-04-24T10:13:11;2.95;;;1.02;;
25962;SDS011;13760;52.588;13.406;2023-04-24T10:15:39;2.67;;;1.00;;
25962;SDS011;13760;52.588;13.406;2023-04-24T10:18:06;4.35;;;0.80;;
25962;SDS011;13760;52.588;13.406;2023-04-24T10:20:33;2.95;;;0.93;;
25962;SDS011;13760;52.588;13.406;2023-04-24T10:22:59;2.30;;;0.90;;
25962;SDS011;13760;52.588;13.406;2023-04-24T10:25:26;4.80;;;1.10;;
25962;SDS011;13760;52.588;13.406;2023-04-24T10:27:54;2.63;;;0.90;;
25962;SDS011;13760;52.588;13.406;2023-04-24T10:33:08;2.25;;;0.70;;
25962;SDS011;13760;52.588;13.406;2023-04-24T10:35:34;1.95;;;0.90;;
25962;SDS011;13760;52.588;13.406;2023-04-24T10:38:28;2.92;;;0.82;;
25962;SDS011;13760;52.588;13.406;2023-04-24T10:41:12;1.85;;;0.73;;
25962;SDS011;13760;52.588;13.406;2023-04-24T10:43:44;3.25;;;1.17;;
25962;SDS011;13760;52.588;13.406;2023-04-24T10:46:11;0.98;;;0.70;;
25962;SDS011;13760;52.588;13.406;2023-04-24T10:48:56;2.10;;;0.70;;
25962;SDS011;13760;52.588;13.406;2023-04-24T10:51:23;3.40;;;0.82;;
25962;SDS011;13760;52.588;13.406;2023-04-24T10:53:50;1.98;;;0.93;;
25962;SDS011;13760;52.588;13.406;2023-04-24T10:56:16;1.92;;;0.70;;
25962;SDS011;13760;52.588;13.406;2023-04-24T10:58:43;1.33;;;0.75;;
25962;SDS011;13760;52.588;13.406;2023-04-24T11:03:50;3.08;;;0.98;;
25962;SDS011;13760;52.588;13.406;2023-04-24T11:06:28;3.33;;;0.80;;
25962;SDS011;13760;52.588;13.406;2023-04-24T11:09:09;1.95;;;0.70;;
25962;SDS011;13760;52.588;13.406;2023-04-24T11:11:44;1.55;;;0.90;;
25962;SDS011;13760;52.588;13.406;2023-04-24T11:14:16;1.75;;;0.80;;
25962;SDS011;13760;52.588;13.406;2023-04-24T11:16:47;1.33;;;0.63;;
25962;SDS011;13760;52.588;13.406;2023-04-24T11:19:18;4.13;;;0.70;;
25962;SDS011;13760;52.588;13.406;2023-04-24T11:21:50;2.13;;;1.00;;
25962;SDS011;13760;52.588;13.406;2023-04-24T11:26:53;1.55;;;0.82;;
25962;SDS011;13760;52.588;13.406;2023-04-24T11:29:22;2.38;;;1.00;;
25962;SDS011;13760;52.588;13.406;2023-04-24T11:32:14;1.57;;;0.70;;
25962;SDS011;13760;52.588;13.406;2023-04-24T11:34:39;2.47;;;0.82;;
25962;SDS011;13760;52.588;13.406;2023-04-24T11:37:05;2.53;;;0.70;;
25962;SDS011;13760;52.588;13.406;2023-04-24T11:39:36;1.75;;;0.60;;
25962;SDS011;13760;52.588;13.406;2023-04-24T11:42:04;2.60;;;0.77;;
25962;SDS011;13760;52.588;13.406;2023-04-24T11:44:33;6.63;;;2.00;;
25962;SDS011;13760;52.588;13.406;2023-04-24T11:46:59;7.63;;;2.05;;
25962;SDS011;13760;52.588;13.406;2023-04-24T11:49:28;10.52;;;2.60;;
25962;SDS011;13760;52.588;13.406;2023-04-24T11:51:56;11.05;;;1.90;;
25962;SDS011;13760;52.588;13.406;2023-04-24T11:54:22;23.50;;;2.85;;
25962;SDS011;13760;52.588;13.406;2023-04-24T11:56:50;8.75;;;2.05;;
25962;SDS011;13760;52.588;13.406;2023-04-24T11:59:16;5.32;;;1.33;;
25962;SDS011;13760;52.588;13.406;2023-04-24T12:01:46;5.07;;;1.75;;
25962;SDS011;13760;52.588;13.406;2023-04-24T12:04:20;13.35;;;2.03;;
25962;SDS011;13760;52.588;13.406;2023-04-24T12:06:58;4.28;;;1.58;;
25962;SDS011;13760;52.588;13.406;2023-04-24T12:09:25;6.97;;;1.67;;
25962;SDS011;13760;52.588;13.406;2023-04-24T12:11:54;6.03;;;1.80;;
25962;SDS011;13760;52.588;13.406;2023-04-24T12:16:49;3.35;;;1.58;;
25962;SDS011;13760;52.588;13.406;2023-04-24T12:19:18;3.38;;;1.70;;
25962;SDS011;13760;52.588;13.406;2023-04-24T12:22:00;3.17;;;1.73;;
25962;SDS011;13760;52.588;13.406;2023-04-24T12:24:27;1.90;;;1.50;;
25962;SDS011;13760;52.588;13.406;2023-04-24T12:27:00;2.30;;;1.20;;
25962;SDS011;13760;52.588;13.406;2023-04-24T12:29:29;2.25;;;1.23;;
25962;SDS011;13760;52.588;13.406;2023-04-24T12:31:55;2.28;;;1.00;;
25962;SDS011;13760;52.588;13.406;2023-04-24T12:34:21;4.53;;;1.30;;
25962;SDS011;13760;52.588;13.406;2023-04-24T12:36:50;4.28;;;1.27;;
25962;SDS011;13760;52.588;13.406;2023-04-24T12:39:16;2.92;;;1.10;;
25962;SDS011;13760;52.588;13.406;2023-04-24T12:42:11;2.22;;;1.00;;
25962;SDS011;13760;52.588;13.406;2023-04-24T12:44:39;2.38;;;1.05;;
25962;SDS011;13760;52.588;13.406;2023-04-24T12:47:06;2.20;;;0.90;;
25962;SDS011;13760;52.588;13.406;2023-04-24T12:49:32;1.80;;;0.82;;
25962;SDS011;13760;52.588;13.406;2023-04-24T12:51:57;3.03;;;0.70;;
25962;SDS011;13760;52.588;13.406;2023-04-24T12:54:23;1.52;;;0.75;;
25962;SDS011;13760;52.588;13.406;2023-04-24T12:56:49;0.82;;;0.63;;
25962;SDS011;13760;52.588;13.406;2023-04-24T12:59:15;1.70;;;0.90;;
25962;SDS011;13760;52.588;13.406;2023-04-24T13:01:41;3.17;;;0.90;;
25962;SDS011;13760;52.588;13.406;2023-04-24T13:04:06;3.22;;;0.95;;
25962;SDS011;13760;52.588;13.406;2023-04-24T13:06:32;1.52;;;1.00;;
25962;SDS011;13760;52.588;13.406;2023-04-24T13:09:00;4.63;;;0.93;;
25962;SDS011;13760;52.588;13.406;2023-04-24T13:11:26;3.50;;;0.90;;
25962;SDS011;13760;52.588;13.406;2023-04-24T13:13:52;2.40;;;0.77;;
25962;SDS011;13760;52.588;13.406;2023-04-24T13:16:17;2.38;;;1.00;;
25962;SDS011;13760;52.588;13.406;2023-04-24T13:18:43;1.15;;;0.73;;
25962;SDS011;13760;52.588;13.406;2023-04-24T13:21:08;2.15;;;0.77;;
25962;SDS011;13760;52.588;13.406;2023-04-24T13:23:34;1.88;;;1.00;;
25962;SDS011;13760;52.588;13.406;2023-04-24T13:25:59;3.28;;;0.95;;
25962;SDS011;13760;52.588;13.406;2023-04-24T13:28:26;2.80;;;1.00;;
25962;SDS011;13760;52.588;13.406;2023-04-24T13:30:51;2.00;;;0.90;;
25962;SDS011;13760;52.588;13.406;2023-04-24T13:33:17;4.90;;;1.08;;
25962;SDS011;13760;52.588;13.406;2023-04-24T13:35:43;4.53;;;1.20;;
25962;SDS011;13760;52.588;13.406;2023-04-24T13:38:08;2.13;;;1.25;;
25962;SDS011;13760;52.588;13.406;2023-04-24T13:40:34;2.58;;;1.17;;
25962;SDS011;13760;52.588;13.406;2023-04-24T13:43:00;2.92;;;1.08;;
25962;SDS011;13760;52.588;13.406;2023-04-24T13:45:26;3.58;;;1.08;;
25962;SDS011;13760;52.588;13.406;2023-04-24T13:47:52;4.13;;;1.30;;
25962;SDS011;13760;52.588;13.406;2023-04-24T13:50:22;1.67;;;1.00;;
25962;SDS011;13760;52.588;13.406;2023-04-24T13:52:47;2.38;;;0.90;;
25962;SDS011;13760;52.588;13.406;2023-04-24T13:55:13;3.05;;;0.80;;
25962;SDS011;13760;52.588;13.406;2023-04-24T13:57:39;3.20;;;0.80;;
25962;SDS011;13760;52.588;13.406;2023-04-24T14:00:05;1.20;;;0.80;;
25962;SDS011;13760;52.588;13.406;2023-04-24T14:02:31;2.13;;;0.80;;
25962;SDS011;13760;52.588;13.406;2023-04-24T14:04:57;3.28;;;0.90;;
25962;SDS011;13760;52.588;13.406;2023-04-24T14:07:22;1.55;;;1.05;;
25962;SDS011;13760;52.588;13.406;2023-04-24T14:09:48;2.45;;;1.10;;
25962;SDS011;13760;52.588;13.406;2023-04-24T14:12:14;1.73;;;0.90;;
25962;SDS011;13760;52.588;13.406;2023-04-24T14:14:41;1.40;;;0.90;;
25962;SDS011;13760;52.588;13.406;2023-04-24T14:17:07;3.13;;;1.02;;
25962;SDS011;13760;52.588;13.406;2023-04-24T14:19:33;1.65;;;0.90;;
25962;SDS011;13760;52.588;13.406;2023-04-24T14:21:58;1.70;;;0.85;;
25962;SDS011;13760;52.588;13.406;2023-04-24T14:24:24;2.17;;;0.93;;
25962;SDS011;13760;52.588;13.406;2023-04-24T14:26:49;1.42;;;0.73;;
25962;SDS011;13760;52.588;13.406;2023-04-24T14:29:15;1.13;;;0.70;;
25962;SDS011;13760;52.588;13.406;2023-04-24T14:31:42;1.88;;;0.90;;
25962;SDS011;13760;52.588;13.406;2023-04-24T14:34:08;3.15;;;0.80;;
25962;SDS011;13760;52.588;13.406;2023-04-24T14:36:34;2.00;;;0.80;;
25962;SDS011;13760;52.588;13.406;2023-04-24T14:39:03;1.55;;;0.90;;
25962;SDS011;13760;52.588;13.406;2023-04-24T14:41:31;1.15;;;0.88;;
25962;SDS011;13760;52.588;13.406;2023-04-24T14:44:00;1.70;;;0.90;;
25962;SDS011;13760;52.588;13.406;2023-04-24T14:46:29;1.00;;;0.90;;
25962;SDS011;13760;52.588;13.406;2023-04-24T14:48:55;1.30;;;1.00;;
25962;SDS011;13760;52.588;13.406;2023-04-24T14:51:24;3.10;;;0.90;;
25962;SDS011;13760;52.588;13.406;2023-04-24T14:53:50;3.35;;;1.20;;
25962;SDS011;13760;52.588;13.406;2023-04-24T14:56:16;0.98;;;0.80;;
25962;SDS011;13760;52.588;13.406;2023-04-24T14:58:42;2.90;;;0.80;;
25962;SDS011;13760;52.588;13.406;2023-04-24T15:01:08;1.08;;;0.90;;
25962;SDS011;13760;52.588;13.406;2023-04-24T15:03:33;1.75;;;0.90;;
25962;SDS011;13760;52.588;13.406;2023-04-24T15:05:59;4.43;;;0.80;;
25962;SDS011;13760;52.588;13.406;2023-04-24T15:08:25;2.47;;;1.00;;
25962;SDS011;13760;52.588;13.406;2023-04-24T15:10:51;2.17;;;1.00;;
25962;SDS011;13760;52.588;13.406;2023-04-24T15:13:17;1.15;;;0.80;;
25962;SDS011;13760;52.588;13.406;2023-04-24T15:15:42;2.55;;;1.05;;
25962;SDS011;13760;52.588;13.406;2023-04-24T15:18:11;1.45;;;0.85;;
25962;SDS011;13760;52.588;13.406;2023-04-24T15:20:36;4.50;;;1.20;;
25962;SDS011;13760;52.588;13.406;2023-04-24T15:23:04;2.28;;;0.90;;
25962;SDS011;13760;52.588;13.406;2023-04-24T15:25:30;1.75;;;0.90;;